Terminal Aerodrome Forecast
Issued by NWS Bismarck, ND

Home | Current Version | Previous Version | Text Only | Print | Product List | Glossary Off
Versions: 1 2 3 4 5 6 7 8 9 10 11 12 13 14 15 16 17 18 19 20 21 22

000
FTUS43 KBIS 280800 AAA
TAFBIS
TAF AMD
KBIS 280847Z 2809/2906 10008KT P6SM FEW020 SCT080
     FM280900 12007KT P6SM BKN080 OVC120
      TEMPO 2809/2813 -FZRA OVC050
     FM281300 11007KT P6SM SCT012 BKN020
     FM282000 14007KT P6SM OVC015
     FM290300 16006KT P6SM BKN025=

USA.gov is the U.S. government's official web portal to all federal, state and local government web resources and services.